sensor_id;sensor_type;location;lat;lon;timestamp;pressure;altitude;pressure_sealevel;temperature;humidity
35248;BME280;21380;52.194;20.520;2022-11-21T00:00:16;99760.78;;;12.91;38.51
35248;BME280;21380;52.194;20.520;2022-11-21T00:03:01;99763.41;;;12.94;38.93
35248;BME280;21380;52.194;20.520;2022-11-21T00:05:28;99768.59;;;12.94;38.60
35248;BME280;21380;52.194;20.520;2022-11-21T00:07:55;99760.81;;;12.92;39.02
35248;BME280;21380;52.194;20.520;2022-11-21T00:10:22;99766.00;;;12.94;38.98
35248;BME280;21380;52.194;20.520;2022-11-21T00:12:55;99762.56;;;12.93;39.02
35248;BME280;21380;52.194;20.520;2022-11-21T00:15:23;99761.63;;;12.91;38.97
35248;BME280;21380;52.194;20.520;2022-11-21T00:17:49;99738.22;;;12.85;38.92
35248;BME280;21380;52.194;20.520;2022-11-21T00:20:16;99740.91;;;12.90;39.14
35248;BME280;21380;52.194;20.520;2022-11-21T00:22:43;99744.34;;;12.90;38.85
35248;BME280;21380;52.194;20.520;2022-11-21T00:25:09;99722.59;;;12.80;38.92
35248;BME280;21380;52.194;20.520;2022-11-21T00:27:35;99741.75;;;12.89;38.77
35248;BME280;21380;52.194;20.520;2022-11-21T00:30:01;99738.28;;;12.88;38.90
35248;BME280;21380;52.194;20.520;2022-11-21T00:32:27;99742.59;;;12.88;38.97
35248;BME280;21380;52.194;20.520;2022-11-21T00:34:52;99744.31;;;12.87;38.83
35248;BME280;21380;52.194;20.520;2022-11-21T00:37:18;99740.88;;;12.88;38.93
35248;BME280;21380;52.194;20.520;2022-11-21T00:39:44;99745.13;;;12.85;39.01
35248;BME280;21380;52.194;20.520;2022-11-21T00:42:10;99753.78;;;12.87;38.81
35248;BME280;21380;52.194;20.520;2022-11-21T00:44:36;99749.44;;;12.86;38.94
35248;BME280;21380;52.194;20.520;2022-11-21T00:47:02;99736.47;;;12.86;38.98
35248;BME280;21380;52.194;20.520;2022-11-21T00:49:28;99726.91;;;12.80;39.00
35248;BME280;21380;52.194;20.520;2022-11-21T00:51:53;99733.00;;;12.84;38.97
35248;BME280;21380;52.194;20.520;2022-11-21T00:54:19;99726.09;;;12.82;39.15
35248;BME280;21380;52.194;20.520;2022-11-21T00:56:45;99738.22;;;12.85;39.17
35248;BME280;21380;52.194;20.520;2022-11-21T00:59:11;99733.91;;;12.86;38.96
35248;BME280;21380;52.194;20.520;2022-11-21T01:01:37;99720.88;;;12.79;39.17
35248;BME280;21380;52.194;20.520;2022-11-21T01:04:03;99720.91;;;12.82;39.14
35248;BME280;21380;52.194;20.520;2022-11-21T01:06:29;99715.75;;;12.84;39.16
35248;BME280;21380;52.194;20.520;2022-11-21T01:08:55;99717.47;;;12.84;39.25
35248;BME280;21380;52.194;20.520;2022-11-21T01:11:21;99710.56;;;12.84;39.17
35248;BME280;21380;52.194;20.520;2022-11-21T01:13:47;99717.47;;;12.84;39.16
35248;BME280;21380;52.194;20.520;2022-11-21T01:16:18;99710.56;;;12.84;39.15
35248;BME280;21380;52.194;20.520;2022-11-21T01:18:45;99712.31;;;12.84;39.19
35248;BME280;21380;52.194;20.520;2022-11-21T01:21:20;99714.91;;;12.84;39.02
35248;BME280;21380;52.194;20.520;2022-11-21T01:23:47;99714.00;;;12.83;39.39
35248;BME280;21380;52.194;20.520;2022-11-21T01:26:18;99700.91;;;12.75;39.33
35248;BME280;21380;52.194;20.520;2022-11-21T01:28:45;99699.16;;;12.74;39.35
35248;BME280;21380;52.194;20.520;2022-11-21T01:31:16;99714.88;;;12.82;39.22
35248;BME280;21380;52.194;20.520;2022-11-21T01:33:43;99708.81;;;12.81;39.17
35248;BME280;21380;52.194;20.520;2022-11-21T01:36:23;99706.16;;;12.78;38.96
35248;BME280;21380;52.194;20.520;2022-11-21T01:38:52;99706.19;;;12.80;39.28
35248;BME280;21380;52.194;20.520;2022-11-21T01:41:23;99699.25;;;12.77;39.22
35248;BME280;21380;52.194;20.520;2022-11-21T01:43:51;99706.97;;;12.76;39.29
35248;BME280;21380;52.194;20.520;2022-11-21T01:46:21;99713.94;;;12.78;39.14
35248;BME280;21380;52.194;20.520;2022-11-21T01:48:49;99716.53;;;12.78;39.19
35248;BME280;21380;52.194;20.520;2022-11-21T01:54:12;99720.78;;;12.76;39.12
35248;BME280;21380;52.194;20.520;2022-11-21T01:56:43;99714.75;;;12.76;39.05
35248;BME280;21380;52.194;20.520;2022-11-21T01:59:15;99713.00;;;12.75;39.06
35248;BME280;21380;52.194;20.520;2022-11-21T02:01:43;99708.66;;;12.74;39.09
35248;BME280;21380;52.194;20.520;2022-11-21T02:04:11;99704.34;;;12.74;39.25
35248;BME280;21380;52.194;20.520;2022-11-21T02:06:37;99700.91;;;12.74;39.07
35248;BME280;21380;52.194;20.520;2022-11-21T02:09:04;99700.88;;;12.72;39.00
35248;BME280;21380;52.194;20.520;2022-11-21T02:11:35;99694.69;;;12.65;38.87
35248;BME280;21380;52.194;20.520;2022-11-21T02:14:02;99712.06;;;12.71;38.98
35248;BME280;21380;52.194;20.520;2022-11-21T02:16:28;99713.78;;;12.71;38.90
35248;BME280;21380;52.194;20.520;2022-11-21T02:18:55;99674.63;;;12.55;38.96
35248;BME280;21380;52.194;20.520;2022-11-21T02:24:34;99694.75;;;12.69;38.91
35248;BME280;21380;52.194;20.520;2022-11-21T02:27:02;99681.66;;;12.61;38.99
35248;BME280;21380;52.194;20.520;2022-11-21T02:29:29;99699.91;;;12.67;38.65
35248;BME280;21380;52.194;20.520;2022-11-21T02:31:59;99696.44;;;12.67;38.76
35248;BME280;21380;52.194;20.520;2022-11-21T02:34:24;99697.19;;;12.61;38.67
35248;BME280;21380;52.194;20.520;2022-11-21T02:36:50;99702.41;;;12.64;38.73
35248;BME280;21380;52.194;20.520;2022-11-21T02:39:24;99704.06;;;12.60;38.78
35248;BME280;21380;52.194;20.520;2022-11-21T02:41:58;99707.56;;;12.62;38.49
35248;BME280;21380;52.194;20.520;2022-11-21T02:44:50;99720.50;;;12.62;38.47
35248;BME280;21380;52.194;20.520;2022-11-21T02:47:19;99729.09;;;12.61;38.57
35248;BME280;21380;52.194;20.520;2022-11-21T02:49:56;99717.00;;;12.60;38.48
35248;BME280;21380;52.194;20.520;2022-11-21T02:52:26;99725.59;;;12.59;38.46
35248;BME280;21380;52.194;20.520;2022-11-21T02:54:51;99724.69;;;12.56;38.43
35248;BME280;21380;52.194;20.520;2022-11-21T02:57:17;99718.63;;;12.55;38.51
35248;BME280;21380;52.194;20.520;2022-11-21T02:59:43;99728.16;;;12.58;38.51
35248;BME280;21380;52.194;20.520;2022-11-21T03:02:09;99726.41;;;12.57;38.47
35248;BME280;21380;52.194;20.520;2022-11-21T03:04:35;99728.13;;;12.56;38.43
35248;BME280;21380;52.194;20.520;2022-11-21T03:07:01;99743.66;;;12.56;38.76
35248;BME280;21380;52.194;20.520;2022-11-21T03:09:57;99751.41;;;12.56;38.50
35248;BME280;21380;52.194;20.520;2022-11-21T03:12:23;99739.31;;;12.55;38.29
35248;BME280;21380;52.194;20.520;2022-11-21T03:14:49;99741.03;;;12.55;38.20
35248;BME280;21380;52.194;20.520;2022-11-21T03:17:15;99744.47;;;12.54;38.22
35248;BME280;21380;52.194;20.520;2022-11-21T03:19:41;99747.06;;;12.54;38.42
35248;BME280;21380;52.194;20.520;2022-11-21T03:22:07;99747.91;;;12.54;38.28
35248;BME280;21380;52.194;20.520;2022-11-21T03:24:33;99749.66;;;12.54;38.10
35248;BME280;21380;52.194;20.520;2022-11-21T03:26:59;99742.59;;;12.46;38.25
35248;BME280;21380;52.194;20.520;2022-11-21T03:29:25;99747.03;;;12.52;38.21
35248;BME280;21380;52.194;20.520;2022-11-21T03:31:51;99747.91;;;12.53;38.27
35248;BME280;21380;52.194;20.520;2022-11-21T03:34:17;99747.91;;;12.53;38.12
35248;BME280;21380;52.194;20.520;2022-11-21T03:36:43;99751.38;;;12.53;38.23
35248;BME280;21380;52.194;20.520;2022-11-21T03:39:08;99745.31;;;12.53;38.17
35248;BME280;21380;52.194;20.520;2022-11-21T03:41:34;99747.91;;;12.53;38.03
35248;BME280;21380;52.194;20.520;2022-11-21T03:44:09;99756.53;;;12.53;37.89
35248;BME280;21380;52.194;20.520;2022-11-21T03:46:37;99740.13;;;12.53;38.23
35248;BME280;21380;52.194;20.520;2022-11-21T03:49:04;99727.06;;;12.46;38.20
35248;BME280;21380;52.194;20.520;2022-11-21T03:51:30;99736.69;;;12.52;38.06
35248;BME280;21380;52.194;20.520;2022-11-21T03:53:56;99741.03;;;12.53;38.05
35248;BME280;21380;52.194;20.520;2022-11-21T03:56:23;99734.09;;;12.52;37.94
35248;BME280;21380;52.194;20.520;2022-11-21T03:58:49;99721.09;;;12.51;38.11
35248;BME280;21380;52.194;20.520;2022-11-21T04:01:15;99724.47;;;12.46;37.90
35248;BME280;21380;52.194;20.520;2022-11-21T04:03:42;99726.34;;;12.52;37.78
35248;BME280;21380;52.194;20.520;2022-11-21T04:06:09;99720.25;;;12.50;37.90
35248;BME280;21380;52.194;20.520;2022-11-21T04:08:35;99724.59;;;12.51;37.94
35248;BME280;21380;52.194;20.520;2022-11-21T04:11:01;99721.97;;;12.49;37.75
35248;BME280;21380;52.194;20.520;2022-11-21T04:13:27;99728.88;;;12.51;37.88
35248;BME280;21380;52.194;20.520;2022-11-21T04:15:53;99718.50;;;12.49;37.78
35248;BME280;21380;52.194;20.520;2022-11-21T04:18:19;99702.84;;;12.43;37.62
35248;BME280;21380;52.194;20.520;2022-11-21T04:20:45;99709.84;;;12.47;37.67
35248;BME280;21380;52.194;20.520;2022-11-21T04:23:11;99714.22;;;12.49;37.64
35248;BME280;21380;52.194;20.520;2022-11-21T04:25:39;99704.72;;;12.50;37.52
35248;BME280;21380;52.194;20.520;2022-11-21T04:28:04;99698.56;;;12.43;37.83
35248;BME280;21380;52.194;20.520;2022-11-21T04:30:32;99695.13;;;12.44;37.70
35248;BME280;21380;52.194;20.520;2022-11-21T04:32:58;99690.03;;;12.49;37.66
35248;BME280;21380;52.194;20.520;2022-11-21T04:35:25;99686.59;;;12.48;37.67
35248;BME280;21380;52.194;20.520;2022-11-21T04:37:53;99688.25;;;12.46;37.64
35248;BME280;21380;52.194;20.520;2022-11-21T04:40:19;99683.03;;;12.43;37.30
35248;BME280;21380;52.194;20.520;2022-11-21T04:42:46;99689.09;;;12.45;37.39
35248;BME280;21380;52.194;20.520;2022-11-21T04:45:13;99689.16;;;12.47;37.64
35248;BME280;21380;52.194;20.520;2022-11-21T04:47:42;99696.03;;;12.46;37.50
35248;BME280;21380;52.194;20.520;2022-11-21T04:50:10;99694.25;;;12.45;37.47
35248;BME280;21380;52.194;20.520;2022-11-21T04:52:36;99702.03;;;12.45;37.26
35248;BME280;21380;52.194;20.520;2022-11-21T04:55:03;99704.59;;;12.44;37.44
35248;BME280;21380;52.194;20.520;2022-11-21T04:57:29;99687.13;;;12.33;37.31
35248;BME280;21380;52.194;20.520;2022-11-21T04:59:56;99712.38;;;12.45;37.34
35248;BME280;21380;52.194;20.520;2022-11-21T05:02:22;99716.69;;;12.45;37.28
35248;BME280;21380;52.194;20.520;2022-11-21T05:04:48;99709.72;;;12.41;37.35
35248;BME280;21380;52.194;20.520;2022-11-21T05:07:14;99715.84;;;12.44;37.48
35248;BME280;21380;52.194;20.520;2022-11-21T05:09:41;99715.84;;;12.44;37.42
35248;BME280;21380;52.194;20.520;2022-11-21T05:12:10;99718.41;;;12.44;37.44
35248;BME280;21380;52.194;20.520;2022-11-21T05:14:55;99715.84;;;12.44;37.44
35248;BME280;21380;52.194;20.520;2022-11-21T05:17:21;99706.34;;;12.45;37.41
35248;BME280;21380;52.194;20.520;2022-11-21T05:19:47;99705.47;;;12.44;37.40
35248;BME280;21380;52.194;20.520;2022-11-21T05:22:13;99699.41;;;12.44;37.33
35248;BME280;21380;52.194;20.520;2022-11-21T05:24:39;99704.56;;;12.42;37.34
35248;BME280;21380;52.194;20.520;2022-11-21T05:27:05;99685.56;;;12.42;37.47
35248;BME280;21380;52.194;20.520;2022-11-21T05:29:31;99689.97;;;12.44;37.40
35248;BME280;21380;52.194;20.520;2022-11-21T05:31:56;99689.97;;;12.44;37.53
35248;BME280;21380;52.194;20.520;2022-11-21T05:34:22;99677.75;;;12.39;37.58
35248;BME280;21380;52.194;20.520;2022-11-21T05:36:48;99684.72;;;12.41;37.66
35248;BME280;21380;52.194;20.520;2022-11-21T05:39:14;99684.78;;;12.44;37.45
35248;BME280;21380;52.194;20.520;2022-11-21T05:41:40;99668.31;;;12.41;37.43
35248;BME280;21380;52.194;20.520;2022-11-21T05:44:07;99668.28;;;12.39;37.67
35248;BME280;21380;52.194;20.520;2022-11-21T05:46:32;99667.50;;;12.43;37.35
35248;BME280;21380;52.194;20.520;2022-11-21T05:48:58;99676.97;;;12.43;37.29
35248;BME280;21380;52.194;20.520;2022-11-21T05:51:24;99670.84;;;12.39;37.38
35248;BME280;21380;52.194;20.520;2022-11-21T05:53:50;99671.78;;;12.41;37.43
35248;BME280;21380;52.194;20.520;2022-11-21T05:56:18;99674.34;;;12.40;37.43
35248;BME280;21380;52.194;20.520;2022-11-21T05:58:44;99682.19;;;12.44;37.28
35248;BME280;21380;52.194;20.520;2022-11-21T06:01:12;99682.94;;;12.40;37.56
35248;BME280;21380;52.194;20.520;2022-11-21T06:03:40;99689.97;;;12.46;37.26
35248;BME280;21380;52.194;20.520;2022-11-21T06:06:10;99689.09;;;12.45;37.50
35248;BME280;21380;52.194;20.520;2022-11-21T06:08:41;99686.50;;;12.45;37.46
35248;BME280;21380;52.194;20.520;2022-11-21T06:11:10;99675.31;;;12.45;37.36
35248;BME280;21380;52.194;20.520;2022-11-21T06:13:36;99680.47;;;12.45;37.50
35248;BME280;21380;52.194;20.520;2022-11-21T06:16:06;99670.91;;;12.41;37.58
35248;BME280;21380;52.194;20.520;2022-11-21T06:18:35;99678.63;;;12.39;37.47
35248;BME280;21380;52.194;20.520;2022-11-21T06:21:03;99692.56;;;12.46;37.19
35248;BME280;21380;52.194;20.520;2022-11-21T06:23:29;99703.88;;;12.49;41.39
35248;BME280;21380;52.194;20.520;2022-11-21T06:25:57;99686.59;;;12.48;39.67
35248;BME280;21380;52.194;20.520;2022-11-21T06:28:24;99714.03;;;11.01;37.29
35248;BME280;21380;52.194;20.520;2022-11-21T06:30:50;99705.72;;;11.45;42.65
35248;BME280;21380;52.194;20.520;2022-11-21T06:33:17;99706.38;;;11.72;40.65
35248;BME280;21380;52.194;20.520;2022-11-21T06:35:45;99699.75;;;11.83;38.68
35248;BME280;21380;52.194;20.520;2022-11-21T06:38:11;99713.94;;;11.99;38.40
35248;BME280;21380;52.194;20.520;2022-11-21T06:40:39;99703.69;;;12.02;38.21
35248;BME280;21380;52.194;20.520;2022-11-21T06:43:05;99714.22;;;12.11;37.90
35248;BME280;21380;52.194;20.520;2022-11-21T06:45:31;99716.09;;;12.17;37.85
35248;BME280;21380;52.194;20.520;2022-11-21T06:48:00;99716.16;;;12.20;37.93
35248;BME280;21380;52.194;20.520;2022-11-21T06:50:26;99702.34;;;12.20;38.09
35248;BME280;21380;52.194;20.520;2022-11-21T06:52:56;99699.78;;;12.21;37.90
35248;BME280;21380;52.194;20.520;2022-11-21T06:55:22;99696.44;;;12.25;37.90
35248;BME280;21380;52.194;20.520;2022-11-21T06:57:48;99694.75;;;12.27;37.83
35248;BME280;21380;52.194;20.520;2022-11-21T07:00:14;99686.19;;;12.30;38.01
35248;BME280;21380;52.194;20.520;2022-11-21T07:02:40;99687.94;;;12.31;37.89
35248;BME280;21380;52.194;20.520;2022-11-21T07:05:06;99681.06;;;12.33;38.04
35248;BME280;21380;52.194;20.520;2022-11-21T07:07:32;99693.16;;;12.34;37.97
35248;BME280;21380;52.194;20.520;2022-11-21T07:09:58;99684.56;;;12.35;38.06
35248;BME280;21380;52.194;20.520;2022-11-21T07:12:24;99675.06;;;12.34;38.01
35248;BME280;21380;52.194;20.520;2022-11-21T07:15:09;99681.19;;;12.38;38.06
35248;BME280;21380;52.194;20.520;2022-11-21T07:17:35;99664.72;;;12.34;37.88
35248;BME280;21380;52.194;20.520;2022-11-21T07:20:01;99661.41;;;12.40;38.01
35248;BME280;21380;52.194;20.520;2022-11-21T07:22:27;99657.88;;;12.36;38.17
35248;BME280;21380;52.194;20.520;2022-11-21T07:24:52;99656.16;;;12.37;37.98
35248;BME280;21380;52.194;20.520;2022-11-21T07:27:18;99664.94;;;12.45;38.06
35248;BME280;21380;52.194;20.520;2022-11-21T07:29:44;99668.41;;;12.45;37.98
35248;BME280;21380;52.194;20.520;2022-11-21T07:32:10;99668.47;;;12.47;37.91
35248;BME280;21380;52.194;20.520;2022-11-21T07:34:36;99664.16;;;12.49;38.20
35248;BME280;21380;52.194;20.520;2022-11-21T07:37:02;99660.59;;;12.42;38.21
35248;BME280;21380;52.194;20.520;2022-11-21T07:39:28;99666.78;;;12.51;38.22
35248;BME280;21380;52.194;20.520;2022-11-21T07:41:54;99673.69;;;12.52;38.23
35248;BME280;21380;52.194;20.520;2022-11-21T07:44:20;99672.88;;;12.53;38.22
35248;BME280;21380;52.194;20.520;2022-11-21T07:46:46;99660.59;;;12.42;38.28
35248;BME280;21380;52.194;20.520;2022-11-21T07:49:12;99662.34;;;12.43;38.44
35248;BME280;21380;52.194;20.520;2022-11-21T07:51:38;99672.06;;;12.55;38.19
35248;BME280;21380;52.194;20.520;2022-11-21T07:54:03;99658.16;;;12.50;38.28
35248;BME280;21380;52.194;20.520;2022-11-21T07:56:30;99666.88;;;12.55;38.12
35248;BME280;21380;52.194;20.520;2022-11-21T07:58:55;99670.38;;;12.57;38.47
35248;BME280;21380;52.194;20.520;2022-11-21T08:01:22;99678.16;;;12.59;38.40
35248;BME280;21380;52.194;20.520;2022-11-21T08:03:47;99668.69;;;12.59;38.47
35248;BME280;21380;52.194;20.520;2022-11-21T08:06:13;99652.19;;;12.54;38.55
35248;BME280;21380;52.194;20.520;2022-11-21T08:08:39;99660.13;;;12.62;38.42
35248;BME280;21380;52.194;20.520;2022-11-21T08:11:06;99653.16;;;12.59;38.47
35248;BME280;21380;52.194;20.520;2022-11-21T08:13:33;99650.66;;;12.64;38.53
35248;BME280;21380;52.194;20.520;2022-11-21T08:16:02;99642.88;;;12.62;38.65
35248;BME280;21380;52.194;20.520;2022-11-21T08:18:28;99644.69;;;12.67;38.50
35248;BME280;21380;52.194;20.520;2022-11-21T08:20:54;99648.16;;;12.67;38.63
35248;BME280;21380;52.194;20.520;2022-11-21T08:23:20;99643.81;;;12.66;38.52
35248;BME280;21380;52.194;20.520;2022-11-21T08:25:46;99634.34;;;12.68;38.81
35248;BME280;21380;52.194;20.520;2022-11-21T08:28:12;99650.75;;;12.69;38.73
35248;BME280;21380;52.194;20.520;2022-11-21T08:30:39;99644.78;;;12.71;38.65
35248;BME280;21380;52.194;20.520;2022-11-21T08:33:05;99649.03;;;12.69;38.71
35248;BME280;21380;52.194;20.520;2022-11-21T08:35:31;99653.41;;;12.72;38.80
35248;BME280;21380;52.194;20.520;2022-11-21T08:38:00;99661.16;;;12.72;38.87
35248;BME280;21380;52.194;20.520;2022-11-21T08:40:29;99660.31;;;12.73;39.04
35248;BME280;21380;52.194;20.520;2022-11-21T08:43:03;99668.09;;;12.74;38.94
35248;BME280;21380;52.194;20.520;2022-11-21T08:45:30;99670.69;;;12.74;39.04
35248;BME280;21380;52.194;20.520;2022-11-21T08:47:56;99662.81;;;12.68;38.93
35248;BME280;21380;52.194;20.520;2022-11-21T08:50:23;99665.56;;;12.76;39.02
35248;BME280;21380;52.194;20.520;2022-11-21T08:52:49;99660.31;;;12.71;39.17
35248;BME280;21380;52.194;20.520;2022-11-21T08:55:15;99665.59;;;12.77;39.00
35248;BME280;21380;52.194;20.520;2022-11-21T08:57:41;99655.25;;;12.77;39.06
35248;BME280;21380;52.194;20.520;2022-11-21T09:00:09;99657.03;;;12.80;39.11
35248;BME280;21380;52.194;20.520;2022-11-21T09:02:37;99649.22;;;12.78;39.00
35248;BME280;21380;52.194;20.520;2022-11-21T09:05:03;99644.09;;;12.81;39.14
35248;BME280;21380;52.194;20.520;2022-11-21T09:07:30;99638.91;;;12.81;39.16
35248;BME280;21380;52.194;20.520;2022-11-21T09:09:56;99633.75;;;12.83;39.06
35248;BME280;21380;52.194;20.520;2022-11-21T09:12:21;99632.03;;;12.82;38.99
35248;BME280;21380;52.194;20.520;2022-11-21T09:14:47;99630.34;;;12.86;39.33
35248;BME280;21380;52.194;20.520;2022-11-21T09:17:32;99635.59;;;12.87;39.14
35248;BME280;21380;52.194;20.520;2022-11-21T09:20:16;99626.09;;;12.88;39.19
35248;BME280;21380;52.194;20.520;2022-11-21T09:22:42;99620.06;;;12.89;39.25
35248;BME280;21380;52.194;20.520;2022-11-21T09:25:08;99611.47;;;12.90;39.03
35248;BME280;21380;52.194;20.520;2022-11-21T09:27:34;99604.53;;;12.89;39.28
35248;BME280;21380;52.194;20.520;2022-11-21T09:30:00;99597.59;;;12.86;39.30
35248;BME280;21380;52.194;20.520;2022-11-21T09:32:26;99605.47;;;12.91;39.53
35248;BME280;21380;52.194;20.520;2022-11-21T09:34:52;99597.72;;;12.92;39.43
35248;BME280;21380;52.194;20.520;2022-11-21T09:37:18;99596.81;;;12.92;39.43
35248;BME280;21380;52.194;20.520;2022-11-21T09:39:44;99590.81;;;12.93;39.45
35248;BME280;21380;52.194;20.520;2022-11-21T09:43:05;99587.38;;;12.94;39.53
35248;BME280;21380;52.194;20.520;2022-11-21T09:45:25;99592.56;;;12.94;39.43
35248;BME280;21380;52.194;20.520;2022-11-21T09:47:54;99590.81;;;12.94;39.44
35248;BME280;21380;52.194;20.520;2022-11-21T10:00:56;99583.13;;;12.97;39.65
35248;BME280;21380;52.194;20.520;2022-11-21T10:03:30;99574.53;;;12.98;39.67
35248;BME280;21380;52.194;20.520;2022-11-21T10:06:26;99567.56;;;12.96;39.54
35248;BME280;21380;52.194;20.520;2022-11-21T10:12:13;99574.53;;;13.00;39.82
35248;BME280;21380;52.194;20.520;2022-11-21T10:20:52;99564.22;;;13.03;39.97
35248;BME280;21380;52.194;20.520;2022-11-21T10:26:03;99559.91;;;13.02;39.87
35248;BME280;21380;52.194;20.520;2022-11-21T10:28:58;99559.94;;;13.05;40.02
35248;BME280;21380;52.194;20.520;2022-11-21T10:31:34;99554.78;;;13.07;40.14
35248;BME280;21380;52.194;20.520;2022-11-21T10:34:02;99546.97;;;13.02;39.97
35248;BME280;21380;52.194;20.520;2022-11-21T10:36:29;99539.19;;;13.02;40.42
35248;BME280;21380;52.194;20.520;2022-11-21T10:39:02;99553.13;;;13.12;40.18
35248;BME280;21380;52.194;20.520;2022-11-21T10:42:02;99548.00;;;13.13;40.01
35248;BME280;21380;52.194;20.520;2022-11-21T10:44:30;99545.44;;;13.15;40.27
35248;BME280;21380;52.194;20.520;2022-11-21T10:47:23;99545.72;;;11.90;41.38
35248;BME280;21380;52.194;20.520;2022-11-21T10:53:08;99526.34;;;12.56;40.73
35248;BME280;21380;52.194;20.520;2022-11-21T10:56:07;99531.97;;;12.82;40.68
35248;BME280;21380;52.194;20.520;2022-11-21T10:58:54;99537.50;;;13.04;40.37
35248;BME280;21380;52.194;20.520;2022-11-21T11:01:27;99532.63;;;13.24;40.03
35248;BME280;21380;52.194;20.520;2022-11-21T11:06:35;99528.84;;;13.57;40.04
35248;BME280;21380;52.194;20.520;2022-11-21T11:09:02;99529.00;;;13.71;39.43
35248;BME280;21380;52.194;20.520;2022-11-21T11:11:28;99509.19;;;13.75;39.56
35248;BME280;21380;52.194;20.520;2022-11-21T11:14:05;99517.22;;;13.93;39.24
35248;BME280;21380;52.194;20.520;2022-11-21T11:16:42;99520.75;;;14.03;39.58
35248;BME280;21380;52.194;20.520;2022-11-21T11:26:50;99513.31;;;14.34;39.87
35248;BME280;21380;52.194;20.520;2022-11-21T11:29:26;99518.63;;;14.43;39.71
35248;BME280;21380;52.194;20.520;2022-11-21T11:31:56;99510.03;;;14.49;39.63
35248;BME280;21380;52.194;20.520;2022-11-21T11:34:40;99515.25;;;14.54;39.37
35248;BME280;21380;52.194;20.520;2022-11-21T11:37:19;99518.75;;;14.57;39.40
35248;BME280;21380;52.194;20.520;2022-11-21T11:49:17;99505.09;;;14.72;38.94
35248;BME280;21380;52.194;20.520;2022-11-21T11:51:52;99503.34;;;14.73;39.04
35248;BME280;21380;52.194;20.520;2022-11-21T11:54:24;99501.59;;;14.73;39.30
35248;BME280;21380;52.194;20.520;2022-11-21T11:56:52;99510.28;;;14.75;39.12
35248;BME280;21380;52.194;20.520;2022-11-21T11:59:22;99505.09;;;14.77;39.12
35248;BME280;21380;52.194;20.520;2022-11-21T12:02:05;99503.41;;;14.81;39.26
35248;BME280;21380;52.194;20.520;2022-11-21T12:04:47;99480.00;;;14.73;39.17
35248;BME280;21380;52.194;20.520;2022-11-21T12:07:39;99503.47;;;14.87;38.94
35248;BME280;21380;52.194;20.520;2022-11-21T12:10:15;99492.22;;;14.88;38.98
35248;BME280;21380;52.194;20.520;2022-11-21T12:12:48;99500.91;;;14.90;39.28
35248;BME280;21380;52.194;20.520;2022-11-21T12:15:22;99499.16;;;14.90;39.11
35248;BME280;21380;52.194;20.520;2022-11-21T12:46:12;99482.75;;;14.91;39.30
35248;BME280;21380;52.194;20.520;2022-11-21T12:52:24;99479.25;;;14.91;39.67
35248;BME280;21380;52.194;20.520;2022-11-21T12:55:34;99472.34;;;14.90;39.65
35248;BME280;21380;52.194;20.520;2022-11-21T13:03:55;99469.72;;;14.88;39.56
35248;BME280;21380;52.194;20.520;2022-11-21T13:06:30;99471.47;;;14.89;39.80
35248;BME280;21380;52.194;20.520;2022-11-21T13:08:58;99471.44;;;14.88;39.86
35248;BME280;21380;52.194;20.520;2022-11-21T13:17:11;99468.84;;;14.86;39.70
35248;BME280;21380;52.194;20.520;2022-11-21T13:25:00;99469.78;;;14.96;42.01
35248;BME280;21380;52.194;20.520;2022-11-21T13:27:33;99474.09;;;14.97;41.60
35248;BME280;21380;52.194;20.520;2022-11-21T13:32:39;99472.25;;;13.94;41.24
35248;BME280;21380;52.194;20.520;2022-11-21T13:45:46;99450.97;;;14.23;41.04
35248;BME280;21380;52.194;20.520;2022-11-21T13:51:37;99445.75;;;14.22;41.13
35248;BME280;21380;52.194;20.520;2022-11-21T14:05:36;99450.91;;;14.19;41.18
35248;BME280;21380;52.194;20.520;2022-11-21T14:08:23;99448.31;;;14.17;41.53
35248;BME280;21380;52.194;20.520;2022-11-21T14:10:50;99451.75;;;14.16;41.23
35248;BME280;21380;52.194;20.520;2022-11-21T14:13:27;99448.31;;;14.17;41.20
35248;BME280;21380;52.194;20.520;2022-11-21T14:18:51;99438.78;;;14.15;41.62
35248;BME280;21380;52.194;20.520;2022-11-21T14:21:24;99415.28;;;14.01;41.60
35248;BME280;21380;52.194;20.520;2022-11-21T14:23:54;99429.16;;;14.06;42.43
35248;BME280;21380;52.194;20.520;2022-11-21T14:26:22;99447.41;;;14.15;41.89
35248;BME280;21380;52.194;20.520;2022-11-21T14:28:50;99443.97;;;14.15;42.46
35248;BME280;21380;52.194;20.520;2022-11-21T14:31:16;99441.38;;;14.16;42.22
35248;BME280;21380;52.194;20.520;2022-11-21T14:33:47;99444.00;;;14.18;42.51
35248;BME280;21380;52.194;20.520;2022-11-21T14:36:31;99441.41;;;14.18;42.11
35248;BME280;21380;52.194;20.520;2022-11-21T14:38:59;99425.78;;;14.13;42.07
35248;BME280;21380;52.194;20.520;2022-11-21T14:46:37;99432.75;;;14.19;42.00
35248;BME280;21380;52.194;20.520;2022-11-21T14:51:43;99432.31;;;13.11;43.16
35248;BME280;21380;52.194;20.520;2022-11-21T14:54:14;99418.81;;;13.35;43.43
35248;BME280;21380;52.194;20.520;2022-11-21T14:56:42;99432.06;;;13.57;43.28
35248;BME280;21380;52.194;20.520;2022-11-21T14:59:23;99446.06;;;13.70;43.85
35248;BME280;21380;52.194;20.520;2022-11-21T15:02:15;99445.38;;;13.85;43.83
35248;BME280;21380;52.194;20.520;2022-11-21T15:04:42;99446.38;;;13.98;43.55
35248;BME280;21380;52.194;20.520;2022-11-21T15:07:22;99439.56;;;14.07;43.61
35248;BME280;21380;52.194;20.520;2022-11-21T15:09:49;99439.66;;;14.15;43.67
35248;BME280;21380;52.194;20.520;2022-11-21T15:14:59;99458.91;;;14.40;43.31
35248;BME280;21380;52.194;20.520;2022-11-21T15:17:27;99450.34;;;14.51;43.37
35248;BME280;21380;52.194;20.520;2022-11-21T15:20:22;99447.94;;;14.66;43.48
35248;BME280;21380;52.194;20.520;2022-11-21T15:22:49;99453.16;;;14.72;45.55